sensor_id;sensor_type;location;lat;lon;timestamp;P1;durP1;ratioP1;P2;durP2;ratioP2
77298;SDS011;66361;52.034;20.656;2023-09-19T00:02:19;14.88;;;11.23;;
77298;SDS011;66361;52.034;20.656;2023-09-19T00:06:22;15.30;;;11.30;;
77298;SDS011;66361;52.034;20.656;2023-09-19T00:10:27;15.15;;;11.10;;
77298;SDS011;66361;52.034;20.656;2023-09-19T00:14:32;15.30;;;11.25;;
77298;SDS011;66361;52.034;20.656;2023-09-19T00:18:38;15.65;;;11.15;;
77298;SDS011;66361;52.034;20.656;2023-09-19T00:22:44;16.27;;;11.43;;
77298;SDS011;66361;52.034;20.656;2023-09-19T00:26:48;16.90;;;11.75;;
77298;SDS011;66361;52.034;20.656;2023-09-19T00:30:52;16.85;;;12.00;;
77298;SDS011;66361;52.034;20.656;2023-09-19T00:34:59;16.05;;;12.00;;
77298;SDS011;66361;52.034;20.656;2023-09-19T00:39:02;16.20;;;12.30;;
77298;SDS011;66361;52.034;20.656;2023-09-19T00:43:08;16.13;;;11.63;;
77298;SDS011;66361;52.034;20.656;2023-09-19T00:47:11;16.50;;;11.90;;
77298;SDS011;66361;52.034;20.656;2023-09-19T00:51:21;16.63;;;12.25;;
77298;SDS011;66361;52.034;20.656;2023-09-19T00:55:25;16.33;;;11.20;;
77298;SDS011;66361;52.034;20.656;2023-09-19T00:59:29;16.65;;;12.00;;
77298;SDS011;66361;52.034;20.656;2023-09-19T01:03:34;16.55;;;12.55;;
77298;SDS011;66361;52.034;20.656;2023-09-19T01:07:40;17.30;;;12.43;;
77298;SDS011;66361;52.034;20.656;2023-09-19T01:11:46;16.70;;;11.85;;
77298;SDS011;66361;52.034;20.656;2023-09-19T01:15:55;14.57;;;11.52;;
77298;SDS011;66361;52.034;20.656;2023-09-19T01:20:17;16.75;;;12.73;;
77298;SDS011;66361;52.034;20.656;2023-09-19T01:24:51;14.73;;;11.93;;
77298;SDS011;66361;52.034;20.656;2023-09-19T01:29:23;18.17;;;12.43;;
77298;SDS011;66361;52.034;20.656;2023-09-19T01:33:58;15.40;;;11.75;;
77298;SDS011;66361;52.034;20.656;2023-09-19T01:38:03;14.23;;;11.07;;
77298;SDS011;66361;52.034;20.656;2023-09-19T01:42:07;16.92;;;11.57;;
77298;SDS011;66361;52.034;20.656;2023-09-19T01:46:21;15.88;;;11.55;;
77298;SDS011;66361;52.034;20.656;2023-09-19T01:50:32;17.30;;;12.25;;
77298;SDS011;66361;52.034;20.656;2023-09-19T01:54:44;16.35;;;11.68;;
77298;SDS011;66361;52.034;20.656;2023-09-19T01:58:53;16.13;;;12.65;;
77298;SDS011;66361;52.034;20.656;2023-09-19T02:03:02;15.68;;;12.20;;
77298;SDS011;66361;52.034;20.656;2023-09-19T02:07:08;17.52;;;12.32;;
77298;SDS011;66361;52.034;20.656;2023-09-19T02:11:11;14.50;;;11.40;;
77298;SDS011;66361;52.034;20.656;2023-09-19T02:15:15;16.08;;;12.02;;
77298;SDS011;66361;52.034;20.656;2023-09-19T02:19:18;17.48;;;11.75;;
77298;SDS011;66361;52.034;20.656;2023-09-19T02:23:23;18.92;;;11.52;;
77298;SDS011;66361;52.034;20.656;2023-09-19T02:27:26;14.45;;;11.32;;
77298;SDS011;66361;52.034;20.656;2023-09-19T02:31:30;15.63;;;11.68;;
77298;SDS011;66361;52.034;20.656;2023-09-19T02:35:33;13.15;;;10.93;;
77298;SDS011;66361;52.034;20.656;2023-09-19T02:39:39;18.52;;;12.30;;
77298;SDS011;66361;52.034;20.656;2023-09-19T02:43:42;15.35;;;11.40;;
77298;SDS011;66361;52.034;20.656;2023-09-19T02:47:45;17.90;;;11.75;;
77298;SDS011;66361;52.034;20.656;2023-09-19T02:51:49;15.15;;;11.60;;
77298;SDS011;66361;52.034;20.656;2023-09-19T02:55:54;14.43;;;11.60;;
77298;SDS011;66361;52.034;20.656;2023-09-19T02:59:57;17.10;;;12.13;;
77298;SDS011;66361;52.034;20.656;2023-09-19T03:04:01;14.73;;;11.10;;
77298;SDS011;66361;52.034;20.656;2023-09-19T03:08:06;14.32;;;11.52;;
77298;SDS011;66361;52.034;20.656;2023-09-19T03:12:11;13.98;;;11.50;;
77298;SDS011;66361;52.034;20.656;2023-09-19T03:16:17;16.73;;;12.43;;
77298;SDS011;66361;52.034;20.656;2023-09-19T03:20:23;16.63;;;11.85;;
77298;SDS011;66361;52.034;20.656;2023-09-19T03:24:26;17.08;;;12.90;;
77298;SDS011;66361;52.034;20.656;2023-09-19T03:28:32;15.70;;;11.68;;
77298;SDS011;66361;52.034;20.656;2023-09-19T03:32:36;16.63;;;12.48;;
77298;SDS011;66361;52.034;20.656;2023-09-19T03:36:39;17.05;;;11.85;;
77298;SDS011;66361;52.034;20.656;2023-09-19T03:40:43;15.50;;;11.48;;
77298;SDS011;66361;52.034;20.656;2023-09-19T03:44:47;16.23;;;12.35;;
77298;SDS011;66361;52.034;20.656;2023-09-19T03:48:50;15.15;;;11.60;;
77298;SDS011;66361;52.034;20.656;2023-09-19T03:52:55;16.25;;;11.13;;
77298;SDS011;66361;52.034;20.656;2023-09-19T03:56:59;14.60;;;11.25;;
77298;SDS011;66361;52.034;20.656;2023-09-19T04:01:06;16.98;;;12.13;;
77298;SDS011;66361;52.034;20.656;2023-09-19T04:05:09;13.88;;;11.13;;
77298;SDS011;66361;52.034;20.656;2023-09-19T04:09:12;16.45;;;11.55;;
77298;SDS011;66361;52.034;20.656;2023-09-19T04:13:16;13.77;;;11.15;;
77298;SDS011;66361;52.034;20.656;2023-09-19T04:17:20;14.23;;;11.43;;
77298;SDS011;66361;52.034;20.656;2023-09-19T04:21:24;15.20;;;11.55;;
77298;SDS011;66361;52.034;20.656;2023-09-19T04:25:29;18.15;;;12.13;;
77298;SDS011;66361;52.034;20.656;2023-09-19T04:29:33;16.27;;;11.45;;
77298;SDS011;66361;52.034;20.656;2023-09-19T04:33:38;16.75;;;12.65;;
77298;SDS011;66361;52.034;20.656;2023-09-19T04:37:43;17.00;;;11.35;;
77298;SDS011;66361;52.034;20.656;2023-09-19T04:41:46;15.65;;;11.98;;
77298;SDS011;66361;52.034;20.656;2023-09-19T04:45:49;16.08;;;11.75;;
77298;SDS011;66361;52.034;20.656;2023-09-19T04:49:53;16.38;;;11.70;;
77298;SDS011;66361;52.034;20.656;2023-09-19T04:53:57;18.63;;;12.07;;
77298;SDS011;66361;52.034;20.656;2023-09-19T04:58:04;16.67;;;11.38;;
77298;SDS011;66361;52.034;20.656;2023-09-19T05:02:07;15.68;;;11.30;;
77298;SDS011;66361;52.034;20.656;2023-09-19T05:06:12;14.90;;;11.27;;
77298;SDS011;66361;52.034;20.656;2023-09-19T05:10:19;15.93;;;10.95;;
77298;SDS011;66361;52.034;20.656;2023-09-19T05:14:23;20.83;;;11.55;;
77298;SDS011;66361;52.034;20.656;2023-09-19T05:18:25;15.60;;;10.70;;
77298;SDS011;66361;52.034;20.656;2023-09-19T05:22:30;17.23;;;10.35;;
77298;SDS011;66361;52.034;20.656;2023-09-19T05:26:33;16.42;;;9.88;;
77298;SDS011;66361;52.034;20.656;2023-09-19T05:30:37;16.23;;;10.75;;
77298;SDS011;66361;52.034;20.656;2023-09-19T05:34:41;13.48;;;9.70;;
77298;SDS011;66361;52.034;20.656;2023-09-19T05:38:45;14.30;;;11.02;;
77298;SDS011;66361;52.034;20.656;2023-09-19T05:42:51;12.38;;;9.65;;
77298;SDS011;66361;52.034;20.656;2023-09-19T05:46:54;14.88;;;9.77;;
77298;SDS011;66361;52.034;20.656;2023-09-19T05:50:58;12.60;;;9.48;;
77298;SDS011;66361;52.034;20.656;2023-09-19T05:55:04;13.23;;;9.63;;
77298;SDS011;66361;52.034;20.656;2023-09-19T05:59:10;14.93;;;10.35;;
77298;SDS011;66361;52.034;20.656;2023-09-19T06:03:13;13.45;;;9.57;;
77298;SDS011;66361;52.034;20.656;2023-09-19T06:07:16;12.23;;;9.88;;
77298;SDS011;66361;52.034;20.656;2023-09-19T06:11:20;12.65;;;9.73;;
77298;SDS011;66361;52.034;20.656;2023-09-19T06:15:26;13.57;;;9.98;;
77298;SDS011;66361;52.034;20.656;2023-09-19T06:19:29;13.88;;;9.80;;
77298;SDS011;66361;52.034;20.656;2023-09-19T06:23:32;11.93;;;9.25;;
77298;SDS011;66361;52.034;20.656;2023-09-19T06:27:37;13.40;;;8.95;;
77298;SDS011;66361;52.034;20.656;2023-09-19T06:31:42;16.30;;;9.82;;
77298;SDS011;66361;52.034;20.656;2023-09-19T06:35:46;14.10;;;9.95;;
77298;SDS011;66361;52.034;20.656;2023-09-19T06:39:49;11.70;;;8.98;;
77298;SDS011;66361;52.034;20.656;2023-09-19T06:43:53;11.93;;;9.02;;
77298;SDS011;66361;52.034;20.656;2023-09-19T06:47:56;14.85;;;9.60;;
77298;SDS011;66361;52.034;20.656;2023-09-19T06:52:02;12.55;;;8.90;;
77298;SDS011;66361;52.034;20.656;2023-09-19T06:56:08;10.55;;;8.55;;
77298;SDS011;66361;52.034;20.656;2023-09-19T07:00:13;12.73;;;9.45;;
77298;SDS011;66361;52.034;20.656;2023-09-19T07:04:19;14.45;;;9.82;;
77298;SDS011;66361;52.034;20.656;2023-09-19T07:08:23;13.32;;;10.43;;
77298;SDS011;66361;52.034;20.656;2023-09-19T07:12:26;13.25;;;10.27;;
77298;SDS011;66361;52.034;20.656;2023-09-19T07:16:30;14.45;;;10.63;;
77298;SDS011;66361;52.034;20.656;2023-09-19T07:20:33;12.27;;;10.02;;
77298;SDS011;66361;52.034;20.656;2023-09-19T07:24:36;14.15;;;9.93;;
77298;SDS011;66361;52.034;20.656;2023-09-19T07:28:40;13.63;;;10.35;;
77298;SDS011;66361;52.034;20.656;2023-09-19T07:32:44;12.93;;;10.75;;
77298;SDS011;66361;52.034;20.656;2023-09-19T07:36:48;13.70;;;10.02;;
77298;SDS011;66361;52.034;20.656;2023-09-19T07:40:51;13.43;;;10.95;;
77298;SDS011;66361;52.034;20.656;2023-09-19T07:44:54;13.10;;;10.73;;
77298;SDS011;66361;52.034;20.656;2023-09-19T07:48:59;16.20;;;11.10;;
77298;SDS011;66361;52.034;20.656;2023-09-19T07:53:03;15.10;;;11.10;;
77298;SDS011;66361;52.034;20.656;2023-09-19T07:57:06;14.65;;;10.55;;
77298;SDS011;66361;52.034;20.656;2023-09-19T08:01:09;15.55;;;11.07;;
77298;SDS011;66361;52.034;20.656;2023-09-19T08:05:16;14.40;;;10.63;;
77298;SDS011;66361;52.034;20.656;2023-09-19T08:09:19;12.60;;;10.43;;
77298;SDS011;66361;52.034;20.656;2023-09-19T08:13:26;15.02;;;10.25;;
77298;SDS011;66361;52.034;20.656;2023-09-19T08:17:33;12.73;;;9.40;;
77298;SDS011;66361;52.034;20.656;2023-09-19T08:21:38;12.25;;;8.45;;
77298;SDS011;66361;52.034;20.656;2023-09-19T08:25:41;10.40;;;9.02;;
77298;SDS011;66361;52.034;20.656;2023-09-19T08:29:44;17.33;;;9.85;;
77298;SDS011;66361;52.034;20.656;2023-09-19T08:33:48;12.68;;;9.05;;
77298;SDS011;66361;52.034;20.656;2023-09-19T08:37:54;13.57;;;8.95;;
77298;SDS011;66361;52.034;20.656;2023-09-19T08:41:58;13.38;;;9.43;;
77298;SDS011;66361;52.034;20.656;2023-09-19T08:46:05;13.98;;;10.02;;
77298;SDS011;66361;52.034;20.656;2023-09-19T08:50:14;18.77;;;12.35;;
77298;SDS011;66361;52.034;20.656;2023-09-19T08:54:27;14.90;;;11.32;;
77298;SDS011;66361;52.034;20.656;2023-09-19T08:58:38;10.43;;;8.25;;
77298;SDS011;66361;52.034;20.656;2023-09-19T09:02:45;13.55;;;8.68;;
77298;SDS011;66361;52.034;20.656;2023-09-19T09:06:50;9.43;;;6.13;;
77298;SDS011;66361;52.034;20.656;2023-09-19T09:10:58;8.35;;;5.90;;
77298;SDS011;66361;52.034;20.656;2023-09-19T09:15:03;9.32;;;5.32;;
77298;SDS011;66361;52.034;20.656;2023-09-19T09:19:06;8.60;;;5.97;;
77298;SDS011;66361;52.034;20.656;2023-09-19T09:23:09;6.75;;;4.38;;
77298;SDS011;66361;52.034;20.656;2023-09-19T09:27:14;6.38;;;4.47;;
77298;SDS011;66361;52.034;20.656;2023-09-19T09:31:24;5.38;;;3.70;;
77298;SDS011;66361;52.034;20.656;2023-09-19T09:35:28;6.90;;;4.50;;
77298;SDS011;66361;52.034;20.656;2023-09-19T09:39:31;7.53;;;4.40;;
77298;SDS011;66361;52.034;20.656;2023-09-19T09:43:37;12.48;;;5.47;;
77298;SDS011;66361;52.034;20.656;2023-09-19T09:47:44;7.22;;;4.80;;
77298;SDS011;66361;52.034;20.656;2023-09-19T09:51:59;7.05;;;5.50;;
77298;SDS011;66361;52.034;20.656;2023-09-19T09:56:12;7.57;;;5.28;;
77298;SDS011;66361;52.034;20.656;2023-09-19T10:00:18;7.22;;;5.43;;
77298;SDS011;66361;52.034;20.656;2023-09-19T10:04:28;8.02;;;5.75;;
77298;SDS011;66361;52.034;20.656;2023-09-19T10:08:37;7.78;;;5.32;;
77298;SDS011;66361;52.034;20.656;2023-09-19T10:12:44;7.32;;;5.60;;
77298;SDS011;66361;52.034;20.656;2023-09-19T10:16:51;8.85;;;5.68;;
77298;SDS011;66361;52.034;20.656;2023-09-19T10:21:01;6.40;;;4.95;;
77298;SDS011;66361;52.034;20.656;2023-09-19T10:25:08;5.97;;;4.28;;
77298;SDS011;66361;52.034;20.656;2023-09-19T10:29:12;7.72;;;4.95;;
77298;SDS011;66361;52.034;20.656;2023-09-19T10:33:21;5.72;;;4.05;;
77298;SDS011;66361;52.034;20.656;2023-09-19T10:41:34;5.43;;;4.20;;
77298;SDS011;66361;52.034;20.656;2023-09-19T10:45:39;6.05;;;4.22;;
77298;SDS011;66361;52.034;20.656;2023-09-19T10:49:45;6.15;;;4.43;;
77298;SDS011;66361;52.034;20.656;2023-09-19T10:53:51;6.65;;;4.00;;
77298;SDS011;66361;52.034;20.656;2023-09-19T10:57:56;6.40;;;4.00;;
77298;SDS011;66361;52.034;20.656;2023-09-19T11:02:16;6.63;;;4.25;;
77298;SDS011;66361;52.034;20.656;2023-09-19T11:06:21;7.70;;;4.60;;
77298;SDS011;66361;52.034;20.656;2023-09-19T11:14:49;8.55;;;4.43;;
77298;SDS011;66361;52.034;20.656;2023-09-19T11:18:54;5.85;;;4.30;;
77298;SDS011;66361;52.034;20.656;2023-09-19T11:27:28;8.80;;;4.60;;
77298;SDS011;66361;52.034;20.656;2023-09-19T11:36:00;6.45;;;4.30;;
77298;SDS011;66361;52.034;20.656;2023-09-19T11:40:08;7.55;;;4.70;;
77298;SDS011;66361;52.034;20.656;2023-09-19T11:44:33;6.43;;;4.97;;
77298;SDS011;66361;52.034;20.656;2023-09-19T11:48:42;7.70;;;5.35;;
77298;SDS011;66361;52.034;20.656;2023-09-19T11:52:48;6.82;;;5.35;;
77298;SDS011;66361;52.034;20.656;2023-09-19T11:56:55;6.95;;;4.57;;
77298;SDS011;66361;52.034;20.656;2023-09-19T12:00:58;6.32;;;5.72;;
77298;SDS011;66361;52.034;20.656;2023-09-19T12:05:06;7.22;;;5.50;;
77298;SDS011;66361;52.034;20.656;2023-09-19T12:09:12;6.85;;;5.20;;
77298;SDS011;66361;52.034;20.656;2023-09-19T12:13:19;6.82;;;4.90;;
77298;SDS011;66361;52.034;20.656;2023-09-19T12:17:23;8.07;;;6.00;;
77298;SDS011;66361;52.034;20.656;2023-09-19T12:21:27;8.57;;;6.15;;
77298;SDS011;66361;52.034;20.656;2023-09-19T12:25:41;7.82;;;6.03;;
77298;SDS011;66361;52.034;20.656;2023-09-19T12:29:49;9.02;;;6.22;;
77298;SDS011;66361;52.034;20.656;2023-09-19T12:33:56;9.18;;;6.30;;
77298;SDS011;66361;52.034;20.656;2023-09-19T12:38:00;7.55;;;6.35;;
77298;SDS011;66361;52.034;20.656;2023-09-19T12:42:05;8.13;;;6.35;;
77298;SDS011;66361;52.034;20.656;2023-09-19T12:46:11;8.80;;;6.88;;
77298;SDS011;66361;52.034;20.656;2023-09-19T12:50:21;9.77;;;7.38;;
77298;SDS011;66361;52.034;20.656;2023-09-19T12:54:37;9.00;;;6.82;;
77298;SDS011;66361;52.034;20.656;2023-09-19T12:58:48;8.52;;;7.53;;
77298;SDS011;66361;52.034;20.656;2023-09-19T13:11:48;8.55;;;7.63;;
77298;SDS011;66361;52.034;20.656;2023-09-19T13:15:52;9.00;;;7.30;;
77298;SDS011;66361;52.034;20.656;2023-09-19T13:19:57;11.00;;;8.05;;
77298;SDS011;66361;52.034;20.656;2023-09-19T13:32:25;9.63;;;7.90;;
77298;SDS011;66361;52.034;20.656;2023-09-19T13:36:30;10.85;;;8.52;;
77298;SDS011;66361;52.034;20.656;2023-09-19T13:40:33;10.02;;;8.73;;
77298;SDS011;66361;52.034;20.656;2023-09-19T13:44:36;10.80;;;8.68;;
77298;SDS011;66361;52.034;20.656;2023-09-19T13:48:41;9.20;;;8.25;;
77298;SDS011;66361;52.034;20.656;2023-09-19T13:52:46;9.32;;;8.13;;
77298;SDS011;66361;52.034;20.656;2023-09-19T13:56:49;10.18;;;8.38;;
77298;SDS011;66361;52.034;20.656;2023-09-19T14:00:52;7.30;;;6.57;;
77298;SDS011;66361;52.034;20.656;2023-09-19T14:04:56;7.25;;;6.45;;
77298;SDS011;66361;52.034;20.656;2023-09-19T14:09:01;6.93;;;6.22;;
77298;SDS011;66361;52.034;20.656;2023-09-19T14:13:04;6.47;;;5.88;;
77298;SDS011;66361;52.034;20.656;2023-09-19T14:17:08;7.38;;;5.60;;
77298;SDS011;66361;52.034;20.656;2023-09-19T14:21:12;8.40;;;6.07;;
77298;SDS011;66361;52.034;20.656;2023-09-19T14:25:17;6.38;;;5.78;;
77298;SDS011;66361;52.034;20.656;2023-09-19T14:33:27;6.53;;;5.53;;
77298;SDS011;66361;52.034;20.656;2023-09-19T14:37:30;7.13;;;6.43;;
77298;SDS011;66361;52.034;20.656;2023-09-19T14:41:35;9.35;;;6.68;;
77298;SDS011;66361;52.034;20.656;2023-09-19T14:45:38;8.00;;;5.82;;
77298;SDS011;66361;52.034;20.656;2023-09-19T14:49:42;6.07;;;5.47;;
77298;SDS011;66361;52.034;20.656;2023-09-19T14:53:46;6.18;;;5.50;;
77298;SDS011;66361;52.034;20.656;2023-09-19T14:57:51;8.23;;;5.97;;
77298;SDS011;66361;52.034;20.656;2023-09-19T15:01:58;6.38;;;4.95;;
77298;SDS011;66361;52.034;20.656;2023-09-19T15:06:02;5.57;;;4.72;;
77298;SDS011;66361;52.034;20.656;2023-09-19T15:10:07;7.10;;;5.30;;
77298;SDS011;66361;52.034;20.656;2023-09-19T15:14:12;5.43;;;4.80;;
77298;SDS011;66361;52.034;20.656;2023-09-19T15:18:15;6.00;;;5.38;;
77298;SDS011;66361;52.034;20.656;2023-09-19T15:22:19;8.95;;;5.60;;
77298;SDS011;66361;52.034;20.656;2023-09-19T15:26:23;6.57;;;5.40;;
77298;SDS011;66361;52.034;20.656;2023-09-19T15:30:28;6.68;;;5.20;;
77298;SDS011;66361;52.034;20.656;2023-09-19T15:34:31;7.05;;;5.10;;
77298;SDS011;66361;52.034;20.656;2023-09-19T15:38:55;4.63;;;3.90;;
77298;SDS011;66361;52.034;20.656;2023-09-19T15:43:01;4.88;;;3.92;;
77298;SDS011;66361;52.034;20.656;2023-09-19T15:47:06;4.97;;;4.22;;
77298;SDS011;66361;52.034;20.656;2023-09-19T15:51:09;4.65;;;3.88;;
77298;SDS011;66361;52.034;20.656;2023-09-19T15:55:14;4.45;;;4.03;;
77298;SDS011;66361;52.034;20.656;2023-09-19T15:59:17;7.10;;;3.78;;
77298;SDS011;66361;52.034;20.656;2023-09-19T16:03:22;4.65;;;3.92;;
77298;SDS011;66361;52.034;20.656;2023-09-19T16:07:27;4.60;;;3.85;;
77298;SDS011;66361;52.034;20.656;2023-09-19T16:11:31;5.15;;;4.10;;
77298;SDS011;66361;52.034;20.656;2023-09-19T16:15:41;5.80;;;4.43;;
77298;SDS011;66361;52.034;20.656;2023-09-19T16:19:47;4.68;;;3.80;;
77298;SDS011;66361;52.034;20.656;2023-09-19T16:23:51;5.40;;;3.72;;
77298;SDS011;66361;52.034;20.656;2023-09-19T16:27:54;4.97;;;3.85;;
77298;SDS011;66361;52.034;20.656;2023-09-19T16:31:57;5.03;;;4.05;;
77298;SDS011;66361;52.034;20.656;2023-09-19T16:36:02;5.88;;;3.88;;
77298;SDS011;66361;52.034;20.656;2023-09-19T16:40:10;4.30;;;3.75;;
77298;SDS011;66361;52.034;20.656;2023-09-19T16:44:13;5.03;;;3.58;;
77298;SDS011;66361;52.034;20.656;2023-09-19T16:48:16;4.05;;;3.08;;
77298;SDS011;66361;52.034;20.656;2023-09-19T16:52:21;6.00;;;3.35;;
77298;SDS011;66361;52.034;20.656;2023-09-19T16:56:25;4.72;;;3.40;;
77298;SDS011;66361;52.034;20.656;2023-09-19T17:00:29;5.38;;;3.67;;
77298;SDS011;66361;52.034;20.656;2023-09-19T17:04:31;8.07;;;3.20;;
77298;SDS011;66361;52.034;20.656;2023-09-19T17:08:36;7.82;;;3.42;;
77298;SDS011;66361;52.034;20.656;2023-09-19T17:12:40;6.05;;;3.60;;
77298;SDS011;66361;52.034;20.656;2023-09-19T17:16:44;6.90;;;4.53;;
77298;SDS011;66361;52.034;20.656;2023-09-19T17:20:47;8.18;;;4.85;;
77298;SDS011;66361;52.034;20.656;2023-09-19T17:24:51;6.63;;;4.47;;
77298;SDS011;66361;52.034;20.656;2023-09-19T17:28:54;5.95;;;4.50;;
77298;SDS011;66361;52.034;20.656;2023-09-19T17:32:57;5.95;;;4.03;;
77298;SDS011;66361;52.034;20.656;2023-09-19T17:37:00;5.85;;;4.10;;
77298;SDS011;66361;52.034;20.656;2023-09-19T17:41:05;5.47;;;3.65;;
77298;SDS011;66361;52.034;20.656;2023-09-19T17:45:09;5.38;;;3.95;;
77298;SDS011;66361;52.034;20.656;2023-09-19T17:49:14;5.00;;;3.75;;
77298;SDS011;66361;52.034;20.656;2023-09-19T17:53:18;7.03;;;4.03;;
77298;SDS011;66361;52.034;20.656;2023-09-19T17:57:22;5.75;;;3.72;;
77298;SDS011;66361;52.034;20.656;2023-09-19T18:01:27;8.43;;;4.35;;
77298;SDS011;66361;52.034;20.656;2023-09-19T18:05:34;7.05;;;4.30;;
77298;SDS011;66361;52.034;20.656;2023-09-19T18:09:37;9.68;;;4.30;;
77298;SDS011;66361;52.034;20.656;2023-09-19T18:13:42;9.60;;;4.50;;
77298;SDS011;66361;52.034;20.656;2023-09-19T18:17:45;9.98;;;5.43;;
77298;SDS011;66361;52.034;20.656;2023-09-19T18:21:50;11.23;;;5.30;;
77298;SDS011;66361;52.034;20.656;2023-09-19T18:25:55;13.48;;;5.90;;
77298;SDS011;66361;52.034;20.656;2023-09-19T18:29:59;13.00;;;6.45;;
77298;SDS011;66361;52.034;20.656;2023-09-19T18:34:02;9.63;;;5.80;;
77298;SDS011;66361;52.034;20.656;2023-09-19T18:38:08;8.52;;;5.00;;
77298;SDS011;66361;52.034;20.656;2023-09-19T18:42:12;5.93;;;4.45;;
77298;SDS011;66361;52.034;20.656;2023-09-19T18:46:16;5.88;;;4.10;;
77298;SDS011;66361;52.034;20.656;2023-09-19T18:50:20;5.95;;;4.57;;
77298;SDS011;66361;52.034;20.656;2023-09-19T18:54:24;9.20;;;4.57;;
77298;SDS011;66361;52.034;20.656;2023-09-19T18:58:27;5.93;;;3.92;;
77298;SDS011;66361;52.034;20.656;2023-09-19T19:02:32;7.85;;;4.15;;
77298;SDS011;66361;52.034;20.656;2023-09-19T19:06:35;5.50;;;4.55;;
77298;SDS011;66361;52.034;20.656;2023-09-19T19:10:38;5.75;;;4.18;;
77298;SDS011;66361;52.034;20.656;2023-09-19T19:14:43;5.13;;;4.20;;
77298;SDS011;66361;52.034;20.656;2023-09-19T19:18:47;5.40;;;4.88;;
77298;SDS011;66361;52.034;20.656;2023-09-19T19:22:51;5.82;;;4.07;;
77298;SDS011;66361;52.034;20.656;2023-09-19T19:26:55;7.55;;;5.15;;
77298;SDS011;66361;52.034;20.656;2023-09-19T19:30:58;5.65;;;4.38;;
77298;SDS011;66361;52.034;20.656;2023-09-19T19:35:03;6.40;;;4.78;;
77298;SDS011;66361;52.034;20.656;2023-09-19T19:39:08;6.22;;;4.75;;
77298;SDS011;66361;52.034;20.656;2023-09-19T19:43:13;8.70;;;5.32;;
77298;SDS011;66361;52.034;20.656;2023-09-19T19:47:16;7.57;;;4.95;;
77298;SDS011;66361;52.034;20.656;2023-09-19T19:51:21;8.23;;;4.55;;
77298;SDS011;66361;52.034;20.656;2023-09-19T19:55:24;7.05;;;4.57;;
77298;SDS011;66361;52.034;20.656;2023-09-19T19:59:28;8.55;;;4.90;;
77298;SDS011;66361;52.034;20.656;2023-09-19T20:03:32;5.72;;;4.78;;
77298;SDS011;66361;52.034;20.656;2023-09-19T20:07:38;8.38;;;5.10;;
77298;SDS011;66361;52.034;20.656;2023-09-19T20:11:41;6.78;;;5.25;;
77298;SDS011;66361;52.034;20.656;2023-09-19T20:15:53;11.40;;;5.05;;
77298;SDS011;66361;52.034;20.656;2023-09-19T20:19:56;6.50;;;5.15;;
77298;SDS011;66361;52.034;20.656;2023-09-19T20:24:02;7.57;;;5.55;;
77298;SDS011;66361;52.034;20.656;2023-09-19T20:28:07;6.68;;;5.13;;
77298;SDS011;66361;52.034;20.656;2023-09-19T20:32:10;7.15;;;5.05;;
77298;SDS011;66361;52.034;20.656;2023-09-19T20:36:16;6.30;;;4.93;;
77298;SDS011;66361;52.034;20.656;2023-09-19T20:40:23;9.02;;;5.63;;
77298;SDS011;66361;52.034;20.656;2023-09-19T20:44:26;7.35;;;5.53;;
77298;SDS011;66361;52.034;20.656;2023-09-19T20:48:31;7.00;;;5.32;;
77298;SDS011;66361;52.034;20.656;2023-09-19T20:52:35;11.60;;;5.68;;
77298;SDS011;66361;52.034;20.656;2023-09-19T20:56:40;8.20;;;5.88;;
77298;SDS011;66361;52.034;20.656;2023-09-19T21:00:43;6.65;;;5.28;;
77298;SDS011;66361;52.034;20.656;2023-09-19T21:04:49;10.18;;;6.15;;
77298;SDS011;66361;52.034;20.656;2023-09-19T21:08:54;9.63;;;5.38;;
77298;SDS011;66361;52.034;20.656;2023-09-19T21:12:58;9.38;;;5.97;;
77298;SDS011;66361;52.034;20.656;2023-09-19T21:17:02;8.15;;;5.95;;
77298;SDS011;66361;52.034;20.656;2023-09-19T21:21:05;10.13;;;5.18;;
77298;SDS011;66361;52.034;20.656;2023-09-19T21:25:12;8.32;;;5.68;;
77298;SDS011;66361;52.034;20.656;2023-09-19T21:29:17;8.85;;;6.53;;
77298;SDS011;66361;52.034;20.656;2023-09-19T21:33:20;11.23;;;6.65;;
77298;SDS011;66361;52.034;20.656;2023-09-19T21:37:24;7.88;;;6.22;;
77298;SDS011;66361;52.034;20.656;2023-09-19T21:41:30;9.57;;;7.05;;
77298;SDS011;66361;52.034;20.656;2023-09-19T21:45:35;9.77;;;6.35;;
77298;SDS011;66361;52.034;20.656;2023-09-19T21:49:38;11.05;;;6.72;;
77298;SDS011;66361;52.034;20.656;2023-09-19T21:53:41;15.57;;;7.88;;
77298;SDS011;66361;52.034;20.656;2023-09-19T21:57:45;12.02;;;6.40;;
77298;SDS011;66361;52.034;20.656;2023-09-19T22:01:49;10.25;;;7.05;;
77298;SDS011;66361;52.034;20.656;2023-09-19T22:05:53;11.23;;;6.88;;
77298;SDS011;66361;52.034;20.656;2023-09-19T22:10:03;9.70;;;6.78;;
77298;SDS011;66361;52.034;20.656;2023-09-19T22:14:06;10.75;;;7.10;;
77298;SDS011;66361;52.034;20.656;2023-09-19T22:18:11;12.20;;;6.78;;
77298;SDS011;66361;52.034;20.656;2023-09-19T22:22:14;9.20;;;6.65;;
77298;SDS011;66361;52.034;20.656;2023-09-19T22:26:19;9.93;;;7.47;;
77298;SDS011;66361;52.034;20.656;2023-09-19T22:30:23;10.15;;;6.63;;
77298;SDS011;66361;52.034;20.656;2023-09-19T22:34:30;8.23;;;6.03;;
77298;SDS011;66361;52.034;20.656;2023-09-19T22:38:33;8.52;;;6.32;;
77298;SDS011;66361;52.034;20.656;2023-09-19T22:42:36;12.82;;;6.75;;
77298;SDS011;66361;52.034;20.656;2023-09-19T22:46:42;11.30;;;6.68;;
77298;SDS011;66361;52.034;20.656;2023-09-19T22:50:47;8.73;;;6.25;;
77298;SDS011;66361;52.034;20.656;2023-09-19T22:54:53;11.60;;;6.50;;
77298;SDS011;66361;52.034;20.656;2023-09-19T22:58:59;9.50;;;5.72;;
77298;SDS011;66361;52.034;20.656;2023-09-19T23:03:05;9.38;;;7.10;;
77298;SDS011;66361;52.034;20.656;2023-09-19T23:07:12;12.25;;;7.25;;
77298;SDS011;66361;52.034;20.656;2023-09-19T23:11:15;13.63;;;7.80;;
77298;SDS011;66361;52.034;20.656;2023-09-19T23:15:22;9.05;;;6.72;;
77298;SDS011;66361;52.034;20.656;2023-09-19T23:19:28;10.43;;;6.78;;
77298;SDS011;66361;52.034;20.656;2023-09-19T23:23:33;11.18;;;6.53;;
77298;SDS011;66361;52.034;20.656;2023-09-19T23:27:36;8.70;;;6.22;;
77298;SDS011;66361;52.034;20.656;2023-09-19T23:31:39;9.70;;;6.47;;
77298;SDS011;66361;52.034;20.656;2023-09-19T23:35:45;9.45;;;6.93;;
77298;SDS011;66361;52.034;20.656;2023-09-19T23:39:50;10.13;;;6.78;;
77298;SDS011;66361;52.034;20.656;2023-09-19T23:43:52;9.40;;;6.75;;
77298;SDS011;66361;52.034;20.656;2023-09-19T23:47:56;9.52;;;6.50;;
77298;SDS011;66361;52.034;20.656;2023-09-19T23:51:58;11.30;;;6.38;;
